Time;durP1;ratioP1;P1;durP2;ratioP2;P2;SDS_P1;SDS_P2;PMS_P1;PMS_P2;Temp;Humidity;BMP_temperature;BMP_pressure;BME280_temperature;BME280_humidity;BME280_pressure;Samples;Min_cycle;Max_cycle;Signal;HPM_P1;HPM_P2
2023/12/12 00:04:27;;;;;;;0.10;0.10;;;4.10;99.90;;;;;;6215517;23;20047;-66
2023/12/12 00:06:52;;;;;;;0.20;0.20;;;4.20;99.90;;;;;;6188986;23;20013;-66
2023/12/12 00:09:18;;;;;;;0.17;0.17;;;4.20;99.90;;;;;;6189094;23;20066;-66
2023/12/12 00:15:25;;;;;;;12.02;0.45;;;4.20;99.90;;;;;;6214320;23;20336;-66
2023/12/12 00:22:14;;;;;;;0.10;0.10;;;4.10;99.90;;;;;;6213808;23;20015;-65
2023/12/12 00:24:39;;;;;;;0.10;0.10;;;4.00;99.90;;;;;;6214513;23;20023;-65
2023/12/12 00:27:05;;;;;;;0.10;0.10;;;4.00;99.90;;;;;;6187947;23;20021;-66
2023/12/12 00:29:30;;;;;;;0.10;0.10;;;4.00;99.90;;;;;;6187850;23;20009;-66
2023/12/12 00:32:02;;;;;;;0.10;0.10;;;3.90;99.90;;;;;;6214919;23;20087;-66
2023/12/12 00:34:28;;;;;;;0.20;0.20;;;3.90;99.90;;;;;;6187195;23;20055;-65
2023/12/12 00:36:54;;;;;;;0.10;0.10;;;3.90;99.90;;;;;;6186996;23;20012;-65
2023/12/12 00:39:19;;;;;;;0.10;0.10;;;3.90;99.90;;;;;;6213935;23;20032;-65
2023/12/12 00:41:45;;;;;;;0.10;0.10;;;3.90;99.90;;;;;;6187929;23;20062;-65
2023/12/12 00:44:10;;;;;;;0.10;0.10;;;3.90;99.90;;;;;;6187656;23;20023;-65
2023/12/12 00:46:36;;;;;;;0.10;0.10;;;3.90;99.90;;;;;;6213931;23;20020;-66
2023/12/12 00:49:01;;;;;;;0.10;0.10;;;3.90;99.90;;;;;;6188065;23;20012;-66
2023/12/12 00:51:27;;;;;;;0.10;0.10;;;3.90;99.90;;;;;;6187546;23;20017;-65
2023/12/12 00:53:52;;;;;;;0.13;0.13;;;3.90;99.90;;;;;;6187941;23;20013;-65
2023/12/12 00:56:18;;;;;;;0.10;0.10;;;3.90;99.90;;;;;;6214487;23;20409;-66
2023/12/12 01:02:25;;;;;;;2.05;0.28;;;3.90;99.90;;;;;;6216344;23;20012;-66
2023/12/12 01:04:52;;;;;;;0.10;0.10;;;3.90;99.90;;;;;;6215360;23;20339;-66
2023/12/12 01:07:18;;;;;;;0.15;0.15;;;3.90;99.90;;;;;;6189596;23;20009;-66
2023/12/12 01:09:43;;;;;;;0.17;0.17;;;3.90;99.90;;;;;;6189861;23;20458;-65
2023/12/12 01:12:09;;;;;;;0.20;0.10;;;3.80;99.90;;;;;;6189531;23;20074;-65
2023/12/12 01:18:15;;;;;;;0.20;0.20;;;3.80;99.90;;;;;;6216116;23;20012;-66
2023/12/12 01:20:41;;;;;;;0.20;0.20;;;3.80;99.90;;;;;;6215747;23;20013;-65
2023/12/12 01:23:06;;;;;;;0.28;0.13;;;3.80;99.90;;;;;;6189303;23;20005;-65
2023/12/12 01:25:32;;;;;;;0.10;0.10;;;3.80;99.90;;;;;;6188743;23;20063;-65
2023/12/12 01:27:57;;;;;;;0.10;0.10;;;3.80;99.90;;;;;;6189471;23;20340;-65
2023/12/12 01:30:23;;;;;;;0.10;0.10;;;3.80;99.90;;;;;;6189345;23;20040;-66
2023/12/12 01:32:48;;;;;;;1.73;0.10;;;3.80;99.90;;;;;;6216009;23;20016;-65
2023/12/12 01:35:14;;;;;;;0.10;0.10;;;3.80;99.90;;;;;;6189236;23;20499;-65
2023/12/12 01:37:40;;;;;;;0.10;0.10;;;3.80;99.90;;;;;;6216271;23;20469;-66
2023/12/12 01:43:28;;;;;;;0.20;0.20;;;3.80;99.90;;;;;;6216402;23;20343;-65
2023/12/12 01:49:34;;;;;;;0.10;0.10;;;3.80;99.90;;;;;;6215754;23;20007;-65
2023/12/12 01:52:00;;;;;;;0.60;0.47;;;3.80;99.90;;;;;;6216027;23;20344;-66
2023/12/12 01:54:26;;;;;;;0.10;0.10;;;3.80;99.90;;;;;;6214409;23;20016;-65
2023/12/12 02:00:47;;;;;;;0.00;0.00;;;3.90;99.90;;;;;;6215317;23;20391;-65
2023/12/12 02:03:14;;;;;;;0.10;0.10;;;3.90;99.90;;;;;;6164325;23;20017;-65
2023/12/12 02:05:41;;;;;;;0.28;0.28;;;4.00;99.90;;;;;;6186362;23;20024;-65
2023/12/12 02:08:07;;;;;;;0.17;0.17;;;4.00;99.90;;;;;;6187946;23;20036;-65
2023/12/12 02:14:14;;;;;;;0.10;0.10;;;4.20;99.90;;;;;;6215118;23;20075;-65
2023/12/12 02:16:39;;;;;;;0.17;0.17;;;4.30;99.90;;;;;;6215418;23;20016;-65
2023/12/12 02:19:05;;;;;;;0.10;0.10;;;4.20;99.90;;;;;;6188391;23;20015;-65
2023/12/12 02:21:30;;;;;;;0.20;0.20;;;4.30;99.90;;;;;;6187862;23;20396;-65
2023/12/12 02:23:56;;;;;;;0.10;0.10;;;4.30;99.90;;;;;;6187736;23;20447;-65
2023/12/12 02:26:21;;;;;;;0.00;0.00;;;4.30;99.90;;;;;;6188644;23;20016;-66
2023/12/12 02:29:13;;;;;;;0.10;0.10;;;4.20;99.90;;;;;;6215017;23;20099;-65
2023/12/12 02:31:38;;;;;;;0.00;0.00;;;4.20;99.90;;;;;;6184703;23;20020;-66
2023/12/12 02:34:17;;;;;;;0.20;0.20;;;4.10;99.90;;;;;;6186437;23;20013;-65
2023/12/12 02:36:44;;;;;;;0.20;0.20;;;4.00;99.90;;;;;;6188446;23;20017;-65
2023/12/12 02:39:38;;;;;;;0.10;0.10;;;3.90;99.90;;;;;;6187075;23;20016;-65
2023/12/12 02:46:10;;;;;;;0.03;0.03;;;3.60;99.90;;;;;;6187213;23;20523;-65
2023/12/12 02:48:36;;;;;;;0.30;0.30;;;3.50;99.90;;;;;;6214779;23;20048;-66
2023/12/12 02:51:36;;;;;;;0.10;0.10;;;3.50;99.90;;;;;;6160461;23;20021;-65
2023/12/12 02:54:02;;;;;;;0.10;0.10;;;3.40;99.90;;;;;;6185727;23;20083;-65
2023/12/12 02:56:34;;;;;;;0.10;0.10;;;3.40;99.90;;;;;;6214737;23;20444;-65
2023/12/12 02:59:33;;;;;;;0.08;0.05;;;3.30;99.90;;;;;;6187543;23;20040;-65
2023/12/12 03:02:32;;;;;;;0.28;0.28;;;3.40;99.90;;;;;;6161903;23;20022;-65
2023/12/12 03:05:15;;;;;;;0.10;0.10;;;3.30;99.90;;;;;;6213247;23;20016;-65
2023/12/12 03:07:41;;;;;;;0.52;0.32;;;3.40;99.90;;;;;;6186256;23;20031;-65
2023/12/12 03:10:07;;;;;;;0.10;0.10;;;3.40;99.90;;;;;;6186197;23;20012;-65
2023/12/12 03:12:32;;;;;;;0.20;0.20;;;3.30;99.90;;;;;;6212876;23;20024;-65
2023/12/12 03:14:58;;;;;;;0.10;0.10;;;3.30;99.90;;;;;;6185479;23;20009;-65
2023/12/12 03:17:36;;;;;;;0.08;0.08;;;3.30;99.90;;;;;;6187148;23;20017;-65
2023/12/12 03:20:02;;;;;;;2.47;0.40;;;3.30;99.90;;;;;;6185792;23;20009;-66
2023/12/12 03:22:28;;;;;;;0.30;0.30;;;3.30;99.90;;;;;;6161227;23;20182;-65
2023/12/12 03:24:53;;;;;;;0.10;0.10;;;3.30;99.90;;;;;;6212698;23;20013;-65
2023/12/12 03:27:27;;;;;;;0.08;0.08;;;3.30;99.90;;;;;;6186476;23;20016;-65
2023/12/12 03:29:52;;;;;;;0.13;0.13;;;3.30;99.90;;;;;;6161306;23;20043;-65
2023/12/12 03:32:18;;;;;;;0.20;0.20;;;3.30;99.90;;;;;;6187355;23;20071;-65
2023/12/12 03:34:44;;;;;;;0.10;0.10;;;3.20;99.90;;;;;;6211156;23;20020;-65
2023/12/12 03:37:09;;;;;;;0.10;0.10;;;3.20;99.90;;;;;;6187259;23;20013;-65
2023/12/12 03:39:37;;;;;;;0.28;0.28;;;3.20;99.90;;;;;;6185541;23;20016;-65
2023/12/12 03:42:03;;;;;;;0.20;0.20;;;3.10;99.90;;;;;;6187096;23;20017;-65
2023/12/12 03:44:29;;;;;;;0.30;0.30;;;3.10;99.90;;;;;;6179893;23;20031;-65
2023/12/12 03:46:54;;;;;;;0.52;0.52;;;3.10;99.90;;;;;;6186421;23;20013;-65
2023/12/12 03:49:20;;;;;;;0.10;0.10;;;3.10;99.90;;;;;;6184612;23;20423;-65
2023/12/12 03:51:45;;;;;;;0.10;0.10;;;3.10;99.90;;;;;;6185093;23;20099;-65
2023/12/12 03:54:11;;;;;;;0.13;0.10;;;3.20;99.90;;;;;;6182296;23;20075;-65
2023/12/12 03:56:36;;;;;;;2.05;0.28;;;3.20;99.90;;;;;;6211719;23;20530;-65
2023/12/12 03:59:02;;;;;;;0.55;0.55;;;3.20;99.90;;;;;;6184589;23;20016;-65
2023/12/12 04:01:27;;;;;;;0.57;0.57;;;3.30;99.90;;;;;;6183690;23;20020;-65
2023/12/12 04:03:55;;;;;;;0.30;0.20;;;3.20;99.90;;;;;;6185017;23;20459;-65
2023/12/12 04:06:22;;;;;;;0.10;0.10;;;3.20;99.90;;;;;;6181612;23;20017;-64
2023/12/12 04:08:49;;;;;;;0.20;0.20;;;3.20;99.90;;;;;;6184121;23;20452;-64
2023/12/12 04:11:15;;;;;;;0.60;0.60;;;3.30;99.90;;;;;;6184221;23;20134;-64
2023/12/12 04:13:40;;;;;;;0.17;0.17;;;3.30;99.90;;;;;;6210771;23;20016;-65
2023/12/12 04:16:06;;;;;;;0.22;0.22;;;3.30;99.90;;;;;;6184631;23;20016;-65
2023/12/12 04:18:31;;;;;;;0.10;0.10;;;3.30;99.90;;;;;;6185054;23;20020;-65
2023/12/12 04:20:57;;;;;;;0.10;0.10;;;3.20;99.90;;;;;;6211653;23;20091;-65
2023/12/12 04:23:22;;;;;;;0.10;0.10;;;3.20;99.90;;;;;;6210453;23;20092;-65
2023/12/12 04:25:48;;;;;;;0.22;0.22;;;3.20;99.90;;;;;;6183522;23;20333;-65
2023/12/12 04:28:13;;;;;;;0.30;0.30;;;3.20;99.90;;;;;;6185156;23;20472;-65
2023/12/12 04:30:39;;;;;;;0.28;0.28;;;3.20;99.90;;;;;;6182894;23;20020;-65
2023/12/12 04:33:04;;;;;;;0.40;0.38;;;3.30;99.90;;;;;;6212376;23;20017;-65
2023/12/12 04:35:30;;;;;;;1.15;0.47;;;3.30;99.90;;;;;;6185672;23;20013;-65
2023/12/12 04:37:56;;;;;;;0.10;0.10;;;3.40;99.90;;;;;;6212034;23;20012;-65
2023/12/12 04:40:27;;;;;;;0.17;0.17;;;3.40;99.90;;;;;;6185539;23;20066;-65
2023/12/12 04:42:53;;;;;;;0.10;0.10;;;3.40;99.90;;;;;;6212144;23;20024;-65
2023/12/12 04:45:24;;;;;;;0.10;0.10;;;3.50;99.90;;;;;;6213087;23;20056;-65
2023/12/12 04:47:50;;;;;;;0.10;0.10;;;3.50;99.90;;;;;;6161682;23;20039;-65
2023/12/12 04:50:20;;;;;;;0.20;0.20;;;3.60;99.90;;;;;;6186373;23;20017;-65
2023/12/12 04:52:45;;;;;;;0.10;0.10;;;3.60;99.90;;;;;;6185661;23;20063;-64
2023/12/12 04:55:11;;;;;;;0.10;0.10;;;3.60;99.90;;;;;;6183668;23;20012;-65
2023/12/12 04:57:36;;;;;;;0.15;0.13;;;3.60;99.90;;;;;;6186537;23;20025;-65
2023/12/12 05:00:03;;;;;;;0.13;0.10;;;3.70;99.90;;;;;;6186249;23;20336;-65
2023/12/12 05:02:28;;;;;;;0.10;0.10;;;3.70;99.90;;;;;;6185928;23;20091;-65
2023/12/12 05:04:54;;;;;;;0.10;0.10;;;3.70;99.90;;;;;;6212034;23;20083;-66
2023/12/12 05:07:19;;;;;;;0.60;0.55;;;3.70;99.90;;;;;;6211720;23;20017;-65
2023/12/12 05:09:45;;;;;;;0.03;0.03;;;3.70;99.90;;;;;;6185893;23;20016;-65
2023/12/12 05:12:11;;;;;;;0.10;0.10;;;3.70;99.90;;;;;;6185384;23;20418;-65
2023/12/12 05:14:36;;;;;;;0.28;0.20;;;3.70;99.90;;;;;;6183747;23;20019;-65
2023/12/12 05:17:02;;;;;;;0.10;0.10;;;3.70;99.90;;;;;;6210888;23;20004;-65
2023/12/12 05:19:28;;;;;;;0.25;0.25;;;3.70;99.90;;;;;;6185428;23;20059;-65
2023/12/12 05:21:56;;;;;;;0.17;0.17;;;3.80;99.90;;;;;;6212458;23;20035;-65
2023/12/12 05:24:22;;;;;;;0.98;0.70;;;3.80;99.90;;;;;;6185204;23;20139;-65
2023/12/12 05:26:47;;;;;;;0.10;0.10;;;3.80;99.90;;;;;;6212210;23;20052;-65
2023/12/12 05:29:13;;;;;;;0.08;0.08;;;3.80;99.90;;;;;;6212391;23;20021;-65
2023/12/12 05:31:38;;;;;;;0.00;0.00;;;3.80;99.90;;;;;;6186214;23;20020;-65
2023/12/12 05:34:05;;;;;;;0.08;0.08;;;3.90;99.90;;;;;;6184640;23;20058;-66
2023/12/12 05:36:31;;;;;;;0.00;0.00;;;3.90;99.90;;;;;;6212857;23;20024;-66
2023/12/12 05:38:56;;;;;;;0.00;0.00;;;4.00;99.90;;;;;;6187348;23;20009;-65
2023/12/12 05:41:23;;;;;;;0.50;0.50;;;4.00;99.90;;;;;;6210415;23;20017;-65
2023/12/12 05:43:48;;;;;;;0.35;0.20;;;4.10;99.90;;;;;;6210741;23;20020;-66
2023/12/12 05:46:14;;;;;;;0.08;0.08;;;4.20;99.90;;;;;;6184305;23;20343;-65
2023/12/12 05:48:40;;;;;;;0.00;0.00;;;4.30;99.90;;;;;;6210686;23;20074;-66
2023/12/12 05:51:05;;;;;;;0.10;0.10;;;4.30;99.90;;;;;;6184589;23;20473;-66
2023/12/12 05:53:31;;;;;;;0.10;0.10;;;4.40;99.90;;;;;;6182398;23;20017;-65
2023/12/12 05:55:56;;;;;;;0.15;0.15;;;4.40;99.90;;;;;;6186295;23;20008;-65
2023/12/12 05:58:22;;;;;;;0.10;0.10;;;4.50;99.90;;;;;;6212712;23;20444;-65
2023/12/12 06:01:05;;;;;;;0.10;0.10;;;4.50;99.90;;;;;;6186223;23;20455;-65
2023/12/12 06:03:31;;;;;;;0.20;0.20;;;4.60;99.90;;;;;;6186253;23;20092;-65
2023/12/12 06:05:57;;;;;;;0.20;0.20;;;4.80;99.90;;;;;;6184177;23;20013;-65
2023/12/12 06:08:22;;;;;;;0.10;0.10;;;4.90;99.90;;;;;;6187067;23;20019;-65
2023/12/12 06:10:48;;;;;;;0.22;0.22;;;4.90;99.90;;;;;;6187574;23;20038;-65
2023/12/12 06:13:14;;;;;;;0.00;0.00;;;5.10;99.90;;;;;;6187947;23;20044;-65
2023/12/12 06:15:39;;;;;;;0.00;0.00;;;5.20;99.90;;;;;;6185954;23;20443;-65
2023/12/12 06:18:06;;;;;;;0.00;0.00;;;5.20;99.90;;;;;;6186001;23;20013;-65
2023/12/12 06:20:33;;;;;;;0.10;0.10;;;5.30;99.90;;;;;;6211991;23;20016;-65
2023/12/12 06:22:59;;;;;;;0.20;0.20;;;5.20;99.90;;;;;;6186422;23;20461;-65
2023/12/12 06:25:24;;;;;;;0.10;0.10;;;5.30;99.90;;;;;;6185943;23;20058;-65
2023/12/12 06:27:50;;;;;;;0.00;0.00;;;5.30;99.90;;;;;;6186704;23;20523;-65
2023/12/12 06:30:20;;;;;;;0.10;0.10;;;5.30;99.90;;;;;;6183026;23;20032;-65
2023/12/12 06:32:46;;;;;;;0.20;0.20;;;5.40;99.90;;;;;;6184955;23;20462;-65
2023/12/12 06:35:12;;;;;;;0.38;0.30;;;5.30;99.90;;;;;;6159814;23;20013;-65
2023/12/12 06:37:37;;;;;;;0.30;0.30;;;5.30;99.90;;;;;;6185704;23;20012;-65
2023/12/12 06:40:04;;;;;;;0.88;0.30;;;5.30;99.90;;;;;;6212286;23;20087;-65
2023/12/12 06:42:30;;;;;;;0.10;0.10;;;5.30;99.90;;;;;;6186936;23;20097;-65
2023/12/12 06:44:55;;;;;;;0.55;0.30;;;5.20;99.90;;;;;;6186848;23;20089;-65
2023/12/12 06:47:22;;;;;;;1.65;0.20;;;5.20;99.90;;;;;;6162924;23;20071;-65
2023/12/12 06:49:48;;;;;;;0.65;0.22;;;5.20;99.90;;;;;;6187067;23;20016;-65
2023/12/12 06:52:13;;;;;;;0.10;0.10;;;5.10;99.90;;;;;;6160471;23;20021;-65
2023/12/12 06:54:39;;;;;;;1.40;0.40;;;5.00;99.90;;;;;;6185434;23;20099;-65
2023/12/12 06:57:05;;;;;;;0.17;0.17;;;5.00;99.90;;;;;;6187107;23;20083;-65
2023/12/12 06:59:31;;;;;;;0.55;0.55;;;4.90;99.90;;;;;;6213076;23;20009;-65
2023/12/12 07:01:57;;;;;;;0.17;0.17;;;4.90;99.90;;;;;;6212753;23;20411;-65
2023/12/12 07:04:22;;;;;;;0.20;0.20;;;4.80;99.90;;;;;;6212468;23;20044;-65
2023/12/12 07:07:20;;;;;;;0.30;0.30;;;4.80;99.90;;;;;;6187596;23;20070;-66
2023/12/12 07:09:45;;;;;;;0.10;0.10;;;4.70;99.90;;;;;;6187623;23;20096;-65
2023/12/12 07:12:12;;;;;;;0.40;0.40;;;4.60;99.90;;;;;;6184254;23;20407;-65
2023/12/12 07:14:38;;;;;;;0.10;0.10;;;4.60;99.90;;;;;;6186355;23;20060;-65
2023/12/12 07:17:03;;;;;;;0.30;0.30;;;4.60;99.90;;;;;;6188227;23;20083;-65
2023/12/12 07:19:30;;;;;;;0.20;0.20;;;4.60;99.90;;;;;;6186541;23;20400;-65
2023/12/12 07:21:56;;;;;;;0.00;0.00;;;4.50;99.90;;;;;;6162583;23;20021;-65
2023/12/12 07:24:21;;;;;;;0.20;0.20;;;4.50;99.90;;;;;;6212947;23;20012;-66
2023/12/12 07:26:47;;;;;;;0.50;0.30;;;4.40;99.90;;;;;;6212842;23;20021;-65
2023/12/12 07:29:17;;;;;;;0.60;0.22;;;4.40;99.90;;;;;;6213254;23;20016;-65
2023/12/12 07:31:44;;;;;;;0.08;0.08;;;4.30;99.90;;;;;;6213750;23;20056;-65
2023/12/12 07:34:09;;;;;;;0.13;0.13;;;4.30;99.90;;;;;;6210297;23;20344;-65
2023/12/12 07:36:37;;;;;;;0.10;0.10;;;4.30;99.90;;;;;;6185463;23;20009;-65
2023/12/12 07:39:04;;;;;;;0.10;0.10;;;4.20;99.90;;;;;;6213473;23;20008;-65
2023/12/12 07:41:31;;;;;;;0.10;0.10;;;4.20;99.90;;;;;;6186120;23;20272;-65
2023/12/12 07:43:57;;;;;;;0.60;0.30;;;4.20;99.90;;;;;;6187210;23;20012;-65
2023/12/12 07:46:23;;;;;;;0.10;0.10;;;4.20;99.90;;;;;;6186006;23;20482;-65
2023/12/12 07:48:49;;;;;;;0.47;0.47;;;4.10;99.90;;;;;;6186118;23;20028;-65
2023/12/12 07:51:20;;;;;;;0.82;0.43;;;4.10;99.90;;;;;;6186009;23;20021;-65
2023/12/12 07:53:45;;;;;;;0.38;0.20;;;4.10;99.90;;;;;;6187364;23;20012;-65
2023/12/12 07:56:13;;;;;;;0.40;0.40;;;4.10;99.90;;;;;;6182604;23;20012;-65
2023/12/12 07:58:39;;;;;;;0.10;0.10;;;4.10;99.90;;;;;;6187008;23;20015;-65
2023/12/12 08:01:04;;;;;;;0.30;0.30;;;4.00;99.90;;;;;;6186945;23;20016;-65
2023/12/12 08:03:30;;;;;;;0.77;0.77;;;4.00;99.90;;;;;;6186465;23;20024;-65
2023/12/12 08:05:55;;;;;;;0.10;0.10;;;4.00;99.90;;;;;;6212260;23;20436;-65
2023/12/12 08:08:21;;;;;;;0.20;0.20;;;4.00;99.90;;;;;;6188970;23;20008;-65
2023/12/12 08:10:46;;;;;;;0.10;0.10;;;4.00;99.90;;;;;;6186682;23;20012;-65
2023/12/12 08:13:13;;;;;;;0.30;0.30;;;4.00;99.90;;;;;;6187106;23;20024;-65
2023/12/12 08:15:38;;;;;;;0.10;0.10;;;4.00;99.90;;;;;;6183539;23;20008;-65
2023/12/12 08:18:04;;;;;;;0.32;0.20;;;4.00;99.90;;;;;;6213572;23;20015;-65
2023/12/12 08:20:30;;;;;;;0.10;0.10;;;4.00;99.90;;;;;;6186328;23;20025;-65
2023/12/12 08:22:57;;;;;;;1.85;0.55;;;4.00;99.90;;;;;;6214147;23;20110;-65
2023/12/12 08:25:22;;;;;;;0.73;0.40;;;4.00;99.90;;;;;;6186237;23;20008;-65
2023/12/12 08:27:48;;;;;;;0.43;0.43;;;4.00;99.90;;;;;;6213907;23;20474;-65
2023/12/12 08:30:13;;;;;;;0.10;0.10;;;4.00;99.90;;;;;;6188416;23;20040;-65
2023/12/12 08:32:39;;;;;;;0.20;0.20;;;4.00;99.90;;;;;;6185975;23;20107;-65
2023/12/12 08:35:06;;;;;;;0.52;0.38;;;4.00;99.90;;;;;;6186064;23;20321;-65
2023/12/12 08:37:32;;;;;;;1.50;0.40;;;4.00;99.90;;;;;;6184983;23;20039;-65
2023/12/12 08:39:58;;;;;;;0.30;0.30;;;3.90;99.90;;;;;;6187109;23;20016;-65
2023/12/12 08:42:23;;;;;;;0.20;0.20;;;3.90;99.90;;;;;;6188230;23;20020;-65
2023/12/12 08:44:49;;;;;;;0.50;0.50;;;4.00;99.90;;;;;;6214135;23;20301;-65
2023/12/12 08:47:15;;;;;;;0.20;0.20;;;4.00;99.90;;;;;;6214393;23;20020;-65
2023/12/12 08:49:41;;;;;;;0.20;0.20;;;4.00;99.90;;;;;;6187934;23;20020;-65
2023/12/12 08:52:07;;;;;;;0.17;0.17;;;4.10;99.90;;;;;;6214625;23;20013;-65
2023/12/12 08:54:36;;;;;;;0.20;0.20;;;4.20;99.90;;;;;;6186770;23;20063;-65
2023/12/12 08:57:02;;;;;;;0.38;0.38;;;4.20;99.90;;;;;;6188385;23;20020;-65
2023/12/12 08:59:29;;;;;;;1.00;0.65;;;4.30;99.90;;;;;;6186207;23;20088;-65
2023/12/12 09:01:54;;;;;;;0.20;0.20;;;4.40;99.90;;;;;;6164064;23;20020;-65
2023/12/12 09:04:20;;;;;;;0.50;0.50;;;4.50;99.90;;;;;;6187273;23;20047;-65
2023/12/12 09:06:46;;;;;;;0.63;0.60;;;4.60;99.90;;;;;;6188824;23;20016;-65
2023/12/12 09:09:12;;;;;;;1.98;0.30;;;4.60;99.90;;;;;;6186425;23;20016;-65
2023/12/12 09:11:44;;;;;;;0.20;0.20;;;4.70;99.90;;;;;;6187354;23;20023;-65
2023/12/12 09:14:09;;;;;;;0.22;0.22;;;4.80;99.90;;;;;;6187187;23;20012;-65
2023/12/12 09:16:35;;;;;;;0.40;0.40;;;4.90;99.90;;;;;;6188286;23;20467;-65
2023/12/12 09:19:06;;;;;;;1.77;0.55;;;4.90;99.90;;;;;;6187396;23;20433;-65
2023/12/12 09:21:31;;;;;;;1.20;0.45;;;5.00;99.90;;;;;;6185985;23;20020;-64
2023/12/12 09:23:57;;;;;;;0.40;0.30;;;5.10;99.90;;;;;;6187584;23;20043;-65
2023/12/12 09:26:23;;;;;;;0.45;0.20;;;5.10;99.90;;;;;;6187409;23;20082;-65
2023/12/12 09:28:49;;;;;;;1.13;0.68;;;5.10;99.90;;;;;;6188200;23;20571;-65
2023/12/12 09:31:27;;;;;;;0.10;0.10;;;5.10;99.90;;;;;;6187804;23;20020;-65
2023/12/12 09:33:53;;;;;;;0.43;0.25;;;5.20;99.90;;;;;;6188106;23;20009;-65
2023/12/12 09:36:18;;;;;;;1.08;0.68;;;5.20;99.90;;;;;;6187727;23;20309;-65
2023/12/12 09:38:45;;;;;;;0.30;0.30;;;5.30;99.90;;;;;;6187613;23;20005;-65
2023/12/12 09:41:23;;;;;;;0.20;0.20;;;5.30;99.90;;;;;;6162459;23;20023;-65
2023/12/12 09:43:52;;;;;;;1.10;0.73;;;5.30;99.90;;;;;;6185388;23;20019;-65
2023/12/12 09:46:20;;;;;;;0.75;0.30;;;5.40;99.90;;;;;;6187976;23;20012;-65
2023/12/12 09:48:48;;;;;;;0.32;0.32;;;5.50;99.90;;;;;;6187598;23;20016;-65
2023/12/12 09:51:17;;;;;;;1.45;0.50;;;5.50;99.90;;;;;;6214163;23;20004;-65
2023/12/12 09:53:46;;;;;;;0.30;0.30;;;5.60;99.90;;;;;;6187934;23;20024;-65
2023/12/12 09:56:20;;;;;;;1.17;0.38;;;5.70;99.90;;;;;;6187610;23;20047;-64
2023/12/12 09:58:49;;;;;;;0.13;0.13;;;5.70;99.90;;;;;;6187765;23;20327;-65
2023/12/12 10:01:15;;;;;;;1.10;0.38;;;5.80;99.90;;;;;;6187627;23;20087;-65
2023/12/12 10:03:41;;;;;;;1.08;0.60;;;5.90;99.90;;;;;;6215102;23;20502;-65
2023/12/12 10:06:19;;;;;;;4.13;0.88;;;5.90;99.90;;;;;;6184723;23;20009;-65
2023/12/12 10:08:45;;;;;;;1.63;0.73;;;5.90;99.90;;;;;;6214450;23;20013;-65
2023/12/12 10:11:10;;;;;;;0.70;0.45;;;6.00;99.90;;;;;;6161928;23;20063;-65
2023/12/12 10:13:54;;;;;;;0.40;0.40;;;6.00;99.90;;;;;;6187532;23;20013;-65
2023/12/12 10:16:20;;;;;;;0.47;0.47;;;6.00;99.90;;;;;;6185533;23;20009;-65
2023/12/12 10:18:56;;;;;;;1.48;0.60;;;6.00;99.90;;;;;;6186364;23;20012;-65
2023/12/12 10:21:23;;;;;;;0.08;0.08;;;6.00;99.90;;;;;;6159709;23;20043;-65
2023/12/12 10:24:01;;;;;;;0.30;0.30;;;6.00;99.90;;;;;;6212682;23;20442;-65
2023/12/12 10:26:32;;;;;;;0.63;0.55;;;6.00;99.90;;;;;;6213457;23;20054;-65
2023/12/12 10:28:59;;;;;;;0.20;0.20;;;6.10;99.90;;;;;;6184493;23;20456;-65
2023/12/12 10:31:25;;;;;;;0.45;0.30;;;6.10;99.90;;;;;;6185611;23;20017;-65
2023/12/12 10:33:56;;;;;;;1.17;0.75;;;6.20;99.90;;;;;;6185720;23;20020;-64
2023/12/12 10:36:22;;;;;;;0.60;0.32;;;6.20;99.90;;;;;;6186118;23;20423;-65
2023/12/12 10:38:53;;;;;;;0.55;0.55;;;6.30;99.90;;;;;;6186560;23;20372;-65
2023/12/12 10:41:22;;;;;;;0.55;0.30;;;6.50;99.90;;;;;;6186116;23;20017;-65
2023/12/12 10:43:50;;;;;;;0.68;0.68;;;6.60;99.90;;;;;;6185861;23;20406;-65
2023/12/12 10:46:19;;;;;;;0.80;0.57;;;6.80;99.90;;;;;;6213631;23;20467;-65
2023/12/12 10:48:49;;;;;;;1.60;1.23;;;6.90;99.90;;;;;;6185767;23;20017;-65
2023/12/12 10:51:17;;;;;;;0.30;0.30;;;6.90;99.90;;;;;;6187559;23;20067;-65
2023/12/12 10:54:08;;;;;;;2.00;0.55;;;7.00;99.90;;;;;;6213817;23;20031;-65
2023/12/12 10:56:35;;;;;;;2.00;0.52;;;7.10;99.90;;;;;;6186568;23;20023;-65
2023/12/12 10:59:02;;;;;;;2.13;0.90;;;7.10;99.90;;;;;;6187435;23;20318;-65
2023/12/12 11:01:29;;;;;;;0.50;0.50;;;7.10;99.90;;;;;;6186464;23;20437;-65
2023/12/12 11:03:57;;;;;;;1.48;0.65;;;7.10;99.90;;;;;;6187199;23;20348;-65
2023/12/12 11:06:24;;;;;;;0.22;0.22;;;7.10;99.90;;;;;;6213883;23;20012;-65
2023/12/12 11:08:52;;;;;;;0.93;0.90;;;7.10;99.90;;;;;;6187117;23;20017;-65
2023/12/12 11:11:20;;;;;;;3.63;0.60;;;7.10;99.90;;;;;;6211509;23;20040;-64
2023/12/12 11:13:47;;;;;;;1.20;0.85;;;7.20;99.90;;;;;;6187081;23;20012;-65
2023/12/12 11:16:13;;;;;;;0.32;0.32;;;7.20;99.90;;;;;;6213325;23;20019;-65
2023/12/12 11:18:42;;;;;;;1.10;1.00;;;7.20;99.90;;;;;;6186835;23;20034;-65
2023/12/12 11:21:08;;;;;;;1.23;0.98;;;7.20;99.90;;;;;;6185651;23;20008;-65
2023/12/12 11:23:42;;;;;;;0.55;0.55;;;7.30;99.90;;;;;;6214410;23;20084;-65
2023/12/12 11:26:09;;;;;;;0.20;0.20;;;7.30;99.90;;;;;;6187297;23;20031;-65
2023/12/12 11:28:36;;;;;;;0.77;0.45;;;7.30;99.90;;;;;;6187564;23;20009;-65
2023/12/12 11:31:02;;;;;;;0.20;0.17;;;7.30;99.90;;;;;;6213293;23;20019;-65
2023/12/12 11:33:34;;;;;;;6.93;0.85;;;7.30;99.90;;;;;;6184574;23;20087;-65
2023/12/12 11:35:59;;;;;;;0.30;0.30;;;7.30;99.90;;;;;;6185181;23;20194;-65
2023/12/12 11:38:33;;;;;;;0.20;0.20;;;7.30;99.90;;;;;;6211733;23;20008;-65
2023/12/12 11:41:16;;;;;;;0.47;0.47;;;7.30;99.90;;;;;;6185807;23;20080;-64
2023/12/12 11:43:45;;;;;;;0.88;0.15;;;7.40;99.90;;;;;;6185896;23;20045;-64
2023/12/12 11:46:20;;;;;;;0.88;0.63;;;7.40;99.90;;;;;;6186222;23;20012;-64
2023/12/12 11:48:46;;;;;;;0.63;0.63;;;7.40;99.90;;;;;;6186404;23;20059;-64
2023/12/12 11:51:33;;;;;;;1.48;1.38;;;7.50;99.90;;;;;;6186817;23;20013;-64
2023/12/12 11:54:04;;;;;;;0.85;0.63;;;7.60;99.90;;;;;;6184468;23;20312;-64
2023/12/12 11:56:29;;;;;;;0.35;0.35;;;7.70;99.90;;;;;;6214212;23;20009;-64
2023/12/12 11:58:56;;;;;;;0.75;0.30;;;7.70;99.90;;;;;;6187159;23;20055;-64
2023/12/12 12:01:23;;;;;;;0.43;0.43;;;7.80;99.90;;;;;;6162444;23;20070;-64
2023/12/12 12:03:49;;;;;;;3.60;0.50;;;7.70;99.90;;;;;;6186206;23;20012;-65
2023/12/12 12:06:14;;;;;;;0.45;0.38;;;7.80;99.90;;;;;;6213628;23;20112;-64
2023/12/12 12:08:40;;;;;;;0.63;0.43;;;7.80;99.90;;;;;;6186398;23;20027;-65
2023/12/12 12:11:06;;;;;;;1.25;1.15;;;7.90;99.90;;;;;;6187128;23;20429;-64
2023/12/12 12:13:39;;;;;;;0.43;0.43;;;7.90;99.90;;;;;;6186519;23;20031;-64
2023/12/12 12:16:06;;;;;;;1.00;0.57;;;7.90;99.90;;;;;;6185520;23;20017;-65
2023/12/12 12:18:31;;;;;;;1.55;1.33;;;8.00;99.90;;;;;;6186700;23;20088;-65
2023/12/12 12:20:58;;;;;;;0.93;0.93;;;8.00;99.90;;;;;;6187568;23;20040;-65
2023/12/12 12:23:24;;;;;;;0.65;0.60;;;8.00;99.90;;;;;;6186637;23;20456;-65
2023/12/12 12:25:50;;;;;;;0.88;0.65;;;8.00;99.90;;;;;;6186508;23;20110;-64
2023/12/12 12:28:16;;;;;;;0.25;0.25;;;8.00;99.90;;;;;;6186771;23;20463;-65
2023/12/12 12:30:49;;;;;;;0.47;0.47;;;8.00;99.90;;;;;;6213885;23;20009;-64
2023/12/12 12:33:33;;;;;;;3.08;1.15;;;8.10;99.90;;;;;;6211647;23;20009;-65
2023/12/12 12:35:59;;;;;;;0.52;0.40;;;8.10;99.90;;;;;;6184319;23;20017;-66
2023/12/12 12:38:34;;;;;;;1.20;0.68;;;8.10;99.90;;;;;;6186809;23;20302;-65
2023/12/12 12:41:00;;;;;;;0.52;0.52;;;8.10;99.90;;;;;;6187352;23;20048;-66
2023/12/12 12:43:35;;;;;;;0.10;0.10;;;8.10;99.90;;;;;;6187083;23;20035;-66
2023/12/12 12:46:06;;;;;;;0.80;0.80;;;8.10;99.90;;;;;;6186720;23;20020;-66
2023/12/12 12:48:33;;;;;;;1.00;1.00;;;8.20;99.90;;;;;;6186534;23;20017;-65
2023/12/12 12:50:58;;;;;;;0.50;0.50;;;8.20;99.90;;;;;;6187167;23;20317;-67
2023/12/12 12:53:43;;;;;;;5.57;0.88;;;8.20;99.90;;;;;;6213459;23;20092;-66
2023/12/12 12:56:09;;;;;;;0.80;0.80;;;8.20;99.90;;;;;;6215225;23;20383;-66
2023/12/12 12:58:34;;;;;;;0.40;0.40;;;8.20;99.90;;;;;;6186365;23;20009;-66
2023/12/12 13:01:00;;;;;;;1.10;1.10;;;8.20;99.90;;;;;;6188321;23;20044;-66
2023/12/12 13:03:33;;;;;;;1.52;0.60;;;8.20;99.90;;;;;;6188361;23;20013;-65
2023/12/12 13:05:59;;;;;;;0.50;0.50;;;8.20;99.90;;;;;;6189026;23;20013;-66
2023/12/12 13:08:27;;;;;;;6.85;1.58;;;8.20;99.90;;;;;;6188420;23;20482;-66
2023/12/12 13:10:54;;;;;;;2.05;1.85;;;8.20;99.90;;;;;;6189207;23;20328;-65
2023/12/12 13:13:19;;;;;;;1.70;1.20;;;8.20;99.90;;;;;;6189082;23;20024;-66
2023/12/12 13:15:53;;;;;;;1.17;0.70;;;8.20;99.90;;;;;;6215149;23;20005;-66
2023/12/12 13:18:19;;;;;;;4.47;0.70;;;8.20;99.90;;;;;;6189117;23;20012;-67
2023/12/12 13:20:45;;;;;;;2.35;0.85;;;8.10;99.90;;;;;;6188882;23;20487;-66
2023/12/12 13:23:14;;;;;;;0.75;0.75;;;8.10;99.90;;;;;;6188905;23;20079;-66
2023/12/12 13:25:44;;;;;;;0.60;0.60;;;8.10;99.90;;;;;;6188923;23;20424;-66
2023/12/12 13:28:11;;;;;;;1.98;1.77;;;8.10;99.90;;;;;;6188496;23;20058;-66
2023/12/12 13:30:40;;;;;;;1.15;1.05;;;8.10;99.90;;;;;;6189431;23;20352;-66
2023/12/12 13:33:11;;;;;;;1.25;0.77;;;8.10;99.90;;;;;;6187986;23;20340;-65
2023/12/12 13:35:36;;;;;;;1.02;0.93;;;8.10;99.90;;;;;;6186720;23;20131;-66
2023/12/12 13:38:04;;;;;;;6.32;1.08;;;8.10;99.90;;;;;;6188080;23;20059;-66